createdAt,value
2023-02-19T00:02:17.300Z,101524.78
2023-02-19T00:04:59.692Z,101525.22
2023-02-19T00:07:32.501Z,101531.63
2023-02-19T00:10:22.843Z,101512.31
2023-02-19T00:13:09.710Z,101524.78
2023-02-19T00:15:45.360Z,101522.13
2023-02-19T00:18:26.465Z,101526.03
2023-02-19T00:20:59.028Z,101520.91
2023-02-19T00:23:32.539Z,101507.03
2023-02-19T00:26:18.253Z,101528.50
2023-02-19T00:28:53.983Z,101525.38
2023-02-19T00:31:35.507Z,101526.59
2023-02-19T00:34:10.663Z,101524.31
2023-02-19T00:36:43.914Z,101505.31
2023-02-19T00:39:27.082Z,101522.59
2023-02-19T00:42:00.854Z,101520.06
2023-02-19T00:44:42.247Z,101500.81
2023-02-19T00:47:15.874Z,101521.78
2023-02-19T00:49:54.645Z,101514.47
2023-02-19T00:52:28.392Z,101512.59
2023-02-19T00:55:00.981Z,101518.19
2023-02-19T00:57:33.526Z,101525.34
2023-02-19T01:00:10.711Z,101537.16
2023-02-19T01:02:54.810Z,101534.03
2023-02-19T01:05:36.222Z,101517.72
2023-02-19T01:08:08.818Z,101524.72
2023-02-19T01:10:41.491Z,101537.75
2023-02-19T01:13:18.412Z,101533.41
2023-02-19T01:16:14.260Z,101551.31
2023-02-19T01:19:13.082Z,101549.91
2023-02-19T01:21:48.450Z,101549.25
2023-02-19T01:24:20.994Z,101539.91
2023-02-19T01:26:56.837Z,101550.31
2023-02-19T01:29:38.798Z,101532.22
2023-02-19T01:32:20.602Z,101543.31
2023-02-19T01:34:59.686Z,101545.09
2023-02-19T01:37:32.354Z,101561.47
2023-02-19T01:40:05.476Z,101561.34
2023-02-19T01:42:44.019Z,101563.00
2023-02-19T01:45:32.719Z,101570.94
2023-02-19T01:48:14.409Z,101573.75
2023-02-19T01:51:07.037Z,101574.06
2023-02-19T01:53:47.240Z,101576.53
2023-02-19T01:56:22.014Z,101575.44
2023-02-19T01:58:54.906Z,101576.22
2023-02-19T02:01:27.659Z,101577.31
2023-02-19T02:04:01.019Z,101552.22
2023-02-19T02:06:53.052Z,101569.53
2023-02-19T02:09:49.590Z,101567.84
2023-02-19T02:12:22.092Z,101554.78
2023-02-19T02:14:54.839Z,101539.78
2023-02-19T02:17:40.139Z,101555.88
2023-02-19T02:20:28.049Z,101564.72
2023-02-19T02:23:46.723Z,101563.16
2023-02-19T02:26:35.024Z,101563.00
2023-02-19T02:29:32.156Z,101568.28
2023-02-19T02:32:18.013Z,101562.41
2023-02-19T02:35:07.646Z,101571.06
2023-02-19T02:37:44.711Z,101572.94
2023-02-19T02:40:19.287Z,101570.47
2023-02-19T02:42:51.921Z,101548.63
2023-02-19T02:45:37.094Z,101556.53
2023-02-19T02:48:26.236Z,101569.66
2023-02-19T02:51:12.583Z,101580.50
2023-02-19T02:54:12.028Z,101577.72
2023-02-19T02:56:47.880Z,101578.94
2023-02-19T02:59:27.056Z,101587.31
2023-02-19T03:02:22.915Z,101584.75
2023-02-19T03:05:28.468Z,101603.97
2023-02-19T03:08:24.433Z,101596.69
2023-02-19T03:11:29.501Z,101586.88
2023-02-19T03:14:34.970Z,101591.66
2023-02-19T03:17:37.763Z,101604.06
2023-02-19T03:20:15.703Z,101600.94
2023-02-19T03:22:52.210Z,101600.63
2023-02-19T03:25:50.428Z,101606.66
2023-02-19T03:28:47.212Z,101598.59
2023-02-19T03:31:24.880Z,101609.00
2023-02-19T03:34:08.536Z,101613.34
2023-02-19T03:36:48.136Z,101599.06
2023-02-19T03:39:24.375Z,101600.56
2023-02-19T03:42:24.509Z,101616.94
2023-02-19T03:45:09.501Z,101609.00
2023-02-19T03:47:54.480Z,101617.97
2023-02-19T03:50:50.384Z,101616.72
2023-02-19T03:54:04.352Z,101629.47
2023-02-19T03:56:58.766Z,101620.94
2023-02-19T03:59:57.194Z,101631.34
2023-02-19T04:02:50.578Z,101636.25
2023-02-19T04:05:29.641Z,101643.53
2023-02-19T04:08:15.191Z,101646.66
2023-02-19T04:10:51.659Z,101647.09
2023-02-19T04:13:36.458Z,101655.81
2023-02-19T04:16:18.531Z,101660.75
2023-02-19T04:19:02.742Z,101644.19
2023-02-19T04:21:39.396Z,101663.53
2023-02-19T04:24:31.065Z,101660.75
2023-02-19T04:27:06.403Z,101658.88
2023-02-19T04:32:35.475Z,101665.22
2023-02-19T04:35:08.577Z,101660.56
2023-02-19T04:37:41.109Z,101671.25
2023-02-19T04:40:13.920Z,101672.16
2023-02-19T04:42:46.437Z,101676.53
2023-02-19T04:45:19.116Z,101684.59
2023-02-19T04:47:51.735Z,101681.31
2023-02-19T04:50:26.265Z,101692.97
2023-02-19T04:53:14.224Z,101696.38
2023-02-19T04:58:45.820Z,101716.38
2023-02-19T05:01:18.695Z,101708.00
2023-02-19T05:03:51.987Z,101719.63
2023-02-19T05:06:24.732Z,101712.16
2023-02-19T05:09:12.278Z,101715.84
2023-02-19T05:11:44.833Z,101723.66
2023-02-19T05:14:17.615Z,101739.59
2023-02-19T05:16:50.246Z,101750.00
2023-02-19T05:19:23.083Z,101746.00
2023-02-19T05:21:55.805Z,101756.34
2023-02-19T05:24:28.708Z,101727.72
2023-02-19T05:27:01.213Z,101739.19
2023-02-19T05:29:33.801Z,101758.97
2023-02-19T05:32:06.342Z,101755.25
2023-02-19T05:34:41.197Z,101754.91
2023-02-19T05:37:14.335Z,101762.84
2023-02-19T05:39:48.969Z,101762.84
2023-02-19T05:42:24.625Z,101748.69
2023-02-19T05:44:59.218Z,101742.44
2023-02-19T05:47:31.819Z,101744.94
2023-02-19T05:50:06.014Z,101753.84
2023-02-19T05:52:38.489Z,101776.41
2023-02-19T05:55:12.421Z,101756.84
2023-02-19T05:57:48.099Z,101772.59
2023-02-19T06:00:21.656Z,101769.47
2023-02-19T06:02:54.763Z,101775.72
2023-02-19T06:05:27.625Z,101768.53
2023-02-19T06:08:00.259Z,101767.78
2023-02-19T06:10:32.962Z,101765.44
2023-02-19T06:13:05.711Z,101772.59
2023-02-19T06:15:39.155Z,101771.81
2023-02-19T06:18:11.648Z,101769.78
2023-02-19T06:20:44.225Z,101777.50
2023-02-19T06:23:16.756Z,101766.59
2023-02-19T06:25:49.296Z,101786.22
2023-02-19T06:28:21.965Z,101790.22
2023-02-19T06:30:54.728Z,101788.66
2023-02-19T06:33:28.767Z,101793.47
2023-02-19T06:36:04.297Z,101796.69
2023-02-19T06:38:37.251Z,101798.59
2023-02-19T06:41:12.149Z,101808.88
2023-02-19T06:43:46.626Z,101810.75
2023-02-19T06:46:19.298Z,101819.78
2023-02-19T06:48:52.116Z,101809.97
2023-02-19T06:51:27.160Z,101824.03
2023-02-19T06:54:11.952Z,101823.00
2023-02-19T06:57:00.475Z,101829.91
2023-02-19T06:59:33.116Z,101830.94
2023-02-19T07:02:06.018Z,101835.06
2023-02-19T07:04:38.602Z,101842.06
2023-02-19T07:07:12.252Z,101834.69
2023-02-19T07:09:44.801Z,101833.66
2023-02-19T07:12:17.344Z,101842.88
2023-02-19T07:14:50.107Z,101844.31
2023-02-19T07:17:22.719Z,101841.84
2023-02-19T07:19:55.336Z,101855.88
2023-02-19T07:22:27.984Z,101866.03
2023-02-19T07:25:00.521Z,101864.03
2023-02-19T07:27:33.217Z,101862.19
2023-02-19T07:30:10.002Z,101866.41
2023-02-19T07:32:42.869Z,101881.38
2023-02-19T07:35:15.800Z,101895.44
2023-02-19T07:38:08.824Z,101892.50
2023-02-19T07:40:51.180Z,101886.25
2023-02-19T07:43:26.193Z,101899.41
2023-02-19T07:46:02.170Z,101903.63
2023-02-19T07:48:42.585Z,101910.34
2023-02-19T07:51:21.851Z,101923.28
2023-02-19T07:53:54.467Z,101926.56
2023-02-19T07:56:28.838Z,101930.28
2023-02-19T07:59:01.380Z,101924.84
2023-02-19T08:01:52.712Z,101937.78
2023-02-19T08:04:25.333Z,101946.97
2023-02-19T08:06:57.869Z,101942.63
2023-02-19T08:09:30.499Z,101937.59
2023-02-19T08:12:21.820Z,101965.81
2023-02-19T08:14:54.571Z,101956.19
2023-02-19T08:17:27.173Z,101971.41
2023-02-19T08:19:59.759Z,101972.63
2023-02-19T08:22:32.258Z,101950.53
2023-02-19T08:25:08.462Z,101979.81
2023-02-19T08:27:41.010Z,101976.03
2023-02-19T08:30:13.801Z,101986.19
2023-02-19T08:32:46.314Z,101977.63
2023-02-19T08:35:18.899Z,102000.06
2023-02-19T08:37:51.994Z,101997.25
2023-02-19T08:40:26.260Z,102000.81
2023-02-19T08:43:11.422Z,101994.47
2023-02-19T08:45:47.328Z,102000.06
2023-02-19T08:48:19.947Z,101992.88
2023-02-19T08:50:58.129Z,101994.72
2023-02-19T08:53:35.579Z,102008.44
2023-02-19T08:56:12.570Z,102000.94
2023-02-19T08:58:56.813Z,101999.28
2023-02-19T09:01:34.988Z,102008.78
2023-02-19T09:04:12.635Z,102001.09
2023-02-19T09:06:45.320Z,102005.44
2023-02-19T09:09:17.972Z,102002.00
2023-02-19T09:11:50.674Z,102018.66
2023-02-19T09:14:23.350Z,102028.03
2023-02-19T09:16:58.009Z,102009.16
2023-02-19T09:19:31.214Z,102016.53
2023-02-19T09:22:05.773Z,102025.25
2023-02-19T09:24:43.688Z,102012.16
2023-02-19T09:27:20.245Z,102014.50
2023-02-19T09:29:53.116Z,102000.13
2023-02-19T09:32:25.894Z,102008.06
2023-02-19T09:34:58.646Z,101999.19
2023-02-19T09:37:34.226Z,102024.59
2023-02-19T09:40:10.326Z,102022.84
2023-02-19T09:42:44.171Z,102031.72
2023-02-19T09:45:24.934Z,102035.84
2023-02-19T09:48:07.563Z,102019.44
2023-02-19T09:50:47.709Z,102041.09
2023-02-19T09:53:42.089Z,102015.28
2023-02-19T09:56:17.152Z,102055.09
2023-02-19T09:58:58.299Z,102052.25
2023-02-19T10:01:41.048Z,102068.13
2023-02-19T10:04:13.801Z,102078.41
2023-02-19T10:06:51.266Z,102063.22
2023-02-19T10:09:32.829Z,102065.13
2023-02-19T10:12:16.301Z,102103.47
2023-02-19T10:14:55.861Z,102102.34
2023-02-19T10:17:34.744Z,102102.34
2023-02-19T10:20:17.487Z,102099.47
2023-02-19T10:23:00.350Z,102105.75
2023-02-19T10:25:45.320Z,102105.75
2023-02-19T10:28:22.464Z,102117.84
2023-02-19T10:30:59.284Z,102120.00
2023-02-19T10:33:32.118Z,102122.78
2023-02-19T10:36:07.911Z,102130.84
2023-02-19T10:38:47.549Z,102127.50
2023-02-19T10:41:25.297Z,102142.94
2023-02-19T10:44:21.831Z,102157.25
2023-02-19T10:46:59.297Z,102159.38
2023-02-19T10:49:44.049Z,102167.66
2023-02-19T10:52:31.870Z,102163.44
2023-02-19T10:55:26.427Z,102163.75
2023-02-19T10:58:24.097Z,102176.84
2023-02-19T11:01:21.666Z,102176.50
2023-02-19T11:04:18.275Z,102167.00
2023-02-19T11:06:51.614Z,102156.41
2023-02-19T11:09:49.643Z,102161.75
2023-02-19T11:12:29.961Z,102151.03
2023-02-19T11:15:38.787Z,102142.66
2023-02-19T11:18:25.964Z,102166.13
2023-02-19T11:21:05.625Z,102161.91
2023-02-19T11:23:47.245Z,102145.22
2023-02-19T11:26:38.300Z,102149.47
2023-02-19T11:29:24.546Z,102143.75
2023-02-19T11:32:22.478Z,102134.38
2023-02-19T11:35:18.755Z,102147.22
2023-02-19T11:37:59.106Z,102143.19
2023-02-19T11:40:41.706Z,102153.03
2023-02-19T11:43:56.144Z,102147.59
2023-02-19T11:46:46.581Z,102153.94
2023-02-19T11:50:01.849Z,102141.19
2023-02-19T11:53:22.006Z,102136.91
2023-02-19T11:56:24.291Z,102137.16
2023-02-19T11:59:40.561Z,102146.56
2023-02-19T12:02:51.596Z,102149.03
2023-02-19T12:05:42.396Z,102137.03
2023-02-19T12:09:00.305Z,102151.69
2023-02-19T12:11:53.580Z,102137.38
2023-02-19T12:15:04.888Z,102142.06
2023-02-19T12:17:52.556Z,102136.13
2023-02-19T12:21:18.717Z,102143.97
2023-02-19T12:24:32.969Z,102134.81
2023-02-19T12:27:35.025Z,102141.19
2023-02-19T12:30:46.518Z,102150.81
2023-02-19T12:33:34.201Z,102140.72
2023-02-19T12:36:35.273Z,102134.25
2023-02-19T12:39:39.101Z,102135.59
2023-02-19T12:42:40.115Z,102135.72
2023-02-19T12:45:34.245Z,102146.31
2023-02-19T12:48:20.422Z,102147.22
2023-02-19T12:51:21.335Z,102127.22
2023-02-19T12:54:12.528Z,102147.75
2023-02-19T12:57:04.421Z,102131.56
2023-02-19T12:59:57.596Z,102157.50
2023-02-19T13:02:53.603Z,102146.91
2023-02-19T13:06:01.624Z,102155.03
2023-02-19T13:09:05.507Z,102153.25
2023-02-19T13:11:49.261Z,102163.69
2023-02-19T13:14:34.593Z,102156.41
2023-02-19T13:17:19.790Z,102165.03
2023-02-19T13:20:01.798Z,102156.41
2023-02-19T13:23:16.631Z,102171.97
2023-02-19T13:26:10.841Z,102177.75
2023-02-19T13:29:00.491Z,102163.56
2023-02-19T13:31:55.219Z,102168.69
2023-02-19T13:34:53.540Z,102179.13
2023-02-19T13:37:31.690Z,102179.44
2023-02-19T13:40:24.985Z,102178.31
2023-02-19T13:43:02.360Z,102185.72
2023-02-19T13:45:46.185Z,102200.91
2023-02-19T13:48:38.147Z,102198.00
2023-02-19T13:51:23.546Z,102205.84
2023-02-19T13:54:40.226Z,102186.16
2023-02-19T13:57:26.970Z,102218.72
2023-02-19T14:00:00.202Z,102222.44
2023-02-19T14:02:45.912Z,102217.03
2023-02-19T14:06:06.395Z,102233.03
2023-02-19T14:08:56.243Z,102231.44
2023-02-19T14:11:44.329Z,102232.88
2023-02-19T14:14:23.418Z,102238.19
2023-02-19T14:17:04.730Z,102246.88
2023-02-19T14:20:11.917Z,102262.56
2023-02-19T14:22:47.363Z,102263.78
2023-02-19T14:25:31.950Z,102266.94
2023-02-19T14:28:10.542Z,102266.03
2023-02-19T14:31:02.673Z,102266.03
2023-02-19T14:33:43.394Z,102262.00
2023-02-19T14:36:37.536Z,102274.41
2023-02-19T14:39:29.796Z,102274.50
2023-02-19T14:42:12.842Z,102268.22
2023-02-19T14:44:58.816Z,102274.84
2023-02-19T14:47:35.093Z,102262.53
2023-02-19T14:50:23.799Z,102258.97
2023-02-19T14:53:02.962Z,102259.72
2023-02-19T14:55:43.046Z,102254.56
2023-02-19T14:58:25.745Z,102256.00
2023-02-19T15:00:58.561Z,102248.88
2023-02-19T15:03:37.742Z,102258.81
2023-02-19T15:06:19.769Z,102250.56
2023-02-19T15:08:59.155Z,102254.91
2023-02-19T15:11:35.417Z,102244.97
2023-02-19T15:14:20.479Z,102233.09
2023-02-19T15:17:02.475Z,102229.97
2023-02-19T15:19:39.683Z,102224.03
2023-02-19T15:22:21.029Z,102218.75
2023-02-19T15:24:54.564Z,102218.44
2023-02-19T15:27:27.283Z,102210.81
2023-02-19T15:30:02.631Z,102209.38
2023-02-19T15:32:35.438Z,102215.75
2023-02-19T15:35:19.831Z,102221.22
2023-02-19T15:37:53.658Z,102235.72
2023-02-19T15:40:31.278Z,102233.34
2023-02-19T15:43:04.916Z,102232.69
2023-02-19T15:45:48.146Z,102234.22
2023-02-19T15:48:32.569Z,102236.03
2023-02-19T15:51:14.112Z,102256.34
2023-02-19T15:53:58.848Z,102255.28
2023-02-19T15:56:38.486Z,102253.84
2023-02-19T15:59:36.640Z,102268.06
2023-02-19T16:02:14.202Z,102279.59
2023-02-19T16:04:47.530Z,102281.28
2023-02-19T16:07:31.952Z,102290.78
2023-02-19T16:10:26.346Z,102288.84
2023-02-19T16:13:02.037Z,102286.09
2023-02-19T16:15:35.792Z,102291.13
2023-02-19T16:18:15.072Z,102284.75
2023-02-19T16:20:48.598Z,102262.00
2023-02-19T16:23:24.420Z,102282.63
2023-02-19T16:26:03.504Z,102264.91
2023-02-19T16:28:42.672Z,102288.31
2023-02-19T16:31:15.765Z,102292.44
2023-02-19T16:33:51.697Z,102305.19
2023-02-19T16:36:48.660Z,102316.88
2023-02-19T16:39:37.640Z,102297.56
2023-02-19T16:42:15.535Z,102336.41
2023-02-19T16:44:48.518Z,102334.03
2023-02-19T16:47:34.377Z,102336.06
2023-02-19T16:50:17.555Z,102323.28
2023-02-19T16:53:03.117Z,102350.94
2023-02-19T16:55:41.864Z,102332.31
2023-02-19T16:58:23.791Z,102335.00
2023-02-19T17:01:13.473Z,102349.44
2023-02-19T17:03:48.839Z,102352.13
2023-02-19T17:06:35.163Z,102334.78
2023-02-19T17:09:16.717Z,102345.97
2023-02-19T17:11:52.063Z,102357.72
2023-02-19T17:14:24.802Z,102326.16
2023-02-19T17:16:57.492Z,102350.56
2023-02-19T17:19:45.278Z,102335.56
2023-02-19T17:22:18.187Z,102345.28
2023-02-19T17:24:57.056Z,102335.09
2023-02-19T17:27:35.654Z,102351.84
2023-02-19T17:30:27.613Z,102376.59
2023-02-19T17:33:00.422Z,102374.34
2023-02-19T17:35:33.093Z,102365.97
2023-02-19T17:38:09.461Z,102375.59
2023-02-19T17:40:42.029Z,102354.66
2023-02-19T17:43:14.903Z,102378.03
2023-02-19T17:45:47.552Z,102367.72
2023-02-19T17:48:20.255Z,102353.41
2023-02-19T17:50:52.944Z,102352.84
2023-02-19T17:53:25.492Z,102354.50
2023-02-19T17:55:58.067Z,102371.06
2023-02-19T17:58:30.921Z,102367.94
2023-02-19T18:01:03.648Z,102368.84
2023-02-19T18:03:36.178Z,102377.53
2023-02-19T18:06:08.767Z,102387.16
2023-02-19T18:08:51.610Z,102396.31
2023-02-19T18:11:24.389Z,102390.38
2023-02-19T18:13:57.276Z,102388.81
2023-02-19T18:16:37.856Z,102375.38
2023-02-19T18:19:10.719Z,102393.63
2023-02-19T18:21:43.405Z,102390.03
2023-02-19T18:24:16.025Z,102382.63
2023-02-19T18:26:48.609Z,102385.53
2023-02-19T18:29:29.055Z,102404.13
2023-02-19T18:32:07.798Z,102416.84
2023-02-19T18:34:56.744Z,102414.06
2023-02-19T18:37:43.038Z,102416.50
2023-02-19T18:40:15.712Z,102394.91
2023-02-19T18:42:48.841Z,102402.75
2023-02-19T18:45:21.554Z,102401.97
2023-02-19T18:47:54.296Z,102383.03
2023-02-19T18:50:26.970Z,102382.25
2023-02-19T18:52:59.535Z,102385.28
2023-02-19T18:55:44.355Z,102402.75
2023-02-19T18:58:18.727Z,102392.63
2023-02-19T19:00:51.989Z,102395.75
2023-02-19T19:03:24.967Z,102385.47
2023-02-19T19:05:58.471Z,102390.53
2023-02-19T19:08:31.038Z,102393.75
2023-02-19T19:11:09.700Z,102394.56
2023-02-19T19:13:42.396Z,102424.41
2023-02-19T19:16:15.031Z,102403.97
2023-02-19T19:18:47.635Z,102400.66
2023-02-19T19:21:21.341Z,102399.94
2023-02-19T19:23:53.878Z,102405.38
2023-02-19T19:26:26.398Z,102393.16
2023-02-19T19:28:58.965Z,102406.34
2023-02-19T19:31:37.592Z,102418.09
2023-02-19T19:34:12.034Z,102414.97
2023-02-19T19:36:45.556Z,102412.28
2023-02-19T19:39:27.163Z,102407.47
2023-02-19T19:41:59.881Z,102411.47
2023-02-19T19:44:32.520Z,102392.19
2023-02-19T19:47:05.116Z,102416.28
2023-02-19T19:49:37.797Z,102404.41
2023-02-19T19:52:10.373Z,102393.06
2023-02-19T19:54:46.289Z,102392.78
2023-02-19T19:57:18.838Z,102397.53
2023-02-19T19:59:51.939Z,102424.84
2023-02-19T20:02:24.940Z,102427.22
2023-02-19T20:04:57.563Z,102430.00
2023-02-19T20:07:30.439Z,102426.41
2023-02-19T20:10:03.496Z,102432.09
2023-02-19T20:12:36.082Z,102423.38
2023-02-19T20:15:10.122Z,102423.25
2023-02-19T20:17:55.248Z,102426.53
2023-02-19T20:20:28.065Z,102433.84
2023-02-19T20:23:00.822Z,102423.38
2023-02-19T20:25:34.120Z,102432.88
2023-02-19T20:28:06.799Z,102421.44
2023-02-19T20:30:39.426Z,102412.00
2023-02-19T20:33:12.145Z,102415.13
2023-02-19T20:35:50.665Z,102434.63
2023-02-19T20:38:29.225Z,102423.34
2023-02-19T20:41:14.324Z,102427.53
2023-02-19T20:43:55.870Z,102422.47
2023-02-19T20:46:46.320Z,102418.44
2023-02-19T20:49:22.259Z,102429.03
2023-02-19T20:52:04.726Z,102405.25
2023-02-19T20:54:38.373Z,102427.28
2023-02-19T20:57:12.210Z,102427.22
2023-02-19T20:59:44.936Z,102415.16
2023-02-19T21:02:27.920Z,102413.50
2023-02-19T21:05:01.445Z,102418.88
2023-02-19T21:07:34.138Z,102405.72
2023-02-19T21:10:07.722Z,102413.22
2023-02-19T21:12:50.662Z,102382.69
2023-02-19T21:15:24.120Z,102404.13
2023-02-19T21:17:56.830Z,102398.00
2023-02-19T21:20:29.449Z,102394.50
2023-02-19T21:23:02.128Z,102424.88
2023-02-19T21:25:35.691Z,102406.38
2023-02-19T21:28:09.776Z,102399.47
2023-02-19T21:31:00.711Z,102428.78
2023-02-19T21:33:39.237Z,102427.19
2023-02-19T21:36:24.186Z,102397.97
2023-02-19T21:39:02.972Z,102408.25
2023-02-19T21:41:38.312Z,102396.97
2023-02-19T21:44:11.477Z,102385.44
2023-02-19T21:46:44.097Z,102404.59
2023-02-19T21:49:17.876Z,102397.34
2023-02-19T21:51:50.469Z,102379.78
2023-02-19T21:54:25.456Z,102379.78
2023-02-19T21:57:03.139Z,102380.56
2023-02-19T21:59:35.703Z,102374.09
2023-02-19T22:02:28.574Z,102381.06
2023-02-19T22:05:02.527Z,102368.03
2023-02-19T22:07:40.945Z,102385.50
2023-02-19T22:10:16.849Z,102382.34
2023-02-19T22:12:58.981Z,102388.81
2023-02-19T22:15:31.556Z,102378.97
2023-02-19T22:18:04.546Z,102414.22
2023-02-19T22:23:35.433Z,102414.66
2023-02-19T22:26:24.513Z,102405.16
2023-02-19T22:28:59.276Z,102407.25
2023-02-19T22:31:38.228Z,102400.22
2023-02-19T22:34:12.162Z,102397.06
2023-02-19T22:36:44.800Z,102418.44
2023-02-19T22:39:24.814Z,102402.66
2023-02-19T22:41:57.612Z,102406.56
2023-02-19T22:44:30.211Z,102402.66
2023-02-19T22:47:03.086Z,102399.50
2023-02-19T22:49:39.486Z,102394.00
2023-02-19T22:52:12.943Z,102401.19
2023-02-19T22:54:46.693Z,102389.22
2023-02-19T22:57:19.427Z,102391.22
2023-02-19T22:59:52.051Z,102387.28
2023-02-19T23:02:24.774Z,102388.53
2023-02-19T23:04:57.499Z,102395.00
2023-02-19T23:07:50.714Z,102380.66
2023-02-19T23:10:23.501Z,102372.28
2023-02-19T23:13:02.296Z,102375.09
2023-02-19T23:15:47.064Z,102372.84
2023-02-19T23:18:22.172Z,102358.72
2023-02-19T23:20:54.676Z,102382.47
2023-02-19T23:23:27.359Z,102361.94
2023-02-19T23:26:00.278Z,102373.03
2023-02-19T23:28:33.032Z,102373.03
2023-02-19T23:31:05.798Z,102359.69
2023-02-19T23:33:39.701Z,102360.47
2023-02-19T23:36:14.185Z,102350.00
2023-02-19T23:38:47.802Z,102352.44
2023-02-19T23:41:20.566Z,102348.88
2023-02-19T23:43:53.360Z,102340.56
2023-02-19T23:46:26.124Z,102326.03
2023-02-19T23:48:59.900Z,102329.47
2023-02-19T23:51:34.733Z,102338.22
2023-02-19T23:54:07.724Z,102328.81
2023-02-19T23:56:40.455Z,102331.97
2023-02-19T23:59:13.308Z,102320.09
